sensor_id;sensor_type;location;lat;lon;timestamp;P1;durP1;ratioP1;P2;durP2;ratioP2
54235;SDS011;40151;43.606;1.472;2023-03-04T00:01:11;15.05;;;11.63;;
54235;SDS011;40151;43.606;1.472;2023-03-04T00:03:36;15.13;;;11.38;;
54235;SDS011;40151;43.606;1.472;2023-03-04T00:06:02;12.52;;;9.93;;
54235;SDS011;40151;43.606;1.472;2023-03-04T00:08:27;14.43;;;11.57;;
54235;SDS011;40151;43.606;1.472;2023-03-04T00:10:53;15.35;;;11.07;;
54235;SDS011;40151;43.606;1.472;2023-03-04T00:13:18;13.90;;;10.93;;
54235;SDS011;40151;43.606;1.472;2023-03-04T00:15:46;12.90;;;11.05;;
54235;SDS011;40151;43.606;1.472;2023-03-04T00:18:12;12.48;;;10.02;;
54235;SDS011;40151;43.606;1.472;2023-03-04T00:20:37;16.45;;;11.60;;
54235;SDS011;40151;43.606;1.472;2023-03-04T00:23:02;13.15;;;10.68;;
54235;SDS011;40151;43.606;1.472;2023-03-04T00:25:28;14.13;;;10.38;;
54235;SDS011;40151;43.606;1.472;2023-03-04T00:27:53;13.98;;;11.18;;
54235;SDS011;40151;43.606;1.472;2023-03-04T00:30:19;13.82;;;10.88;;
54235;SDS011;40151;43.606;1.472;2023-03-04T00:32:44;13.25;;;10.63;;
54235;SDS011;40151;43.606;1.472;2023-03-04T00:35:10;13.60;;;11.20;;
54235;SDS011;40151;43.606;1.472;2023-03-04T00:37:35;13.35;;;10.30;;
54235;SDS011;40151;43.606;1.472;2023-03-04T00:40:01;15.77;;;11.57;;
54235;SDS011;40151;43.606;1.472;2023-03-04T00:42:26;13.48;;;10.20;;
54235;SDS011;40151;43.606;1.472;2023-03-04T00:44:52;14.13;;;11.50;;
54235;SDS011;40151;43.606;1.472;2023-03-04T00:47:17;12.38;;;10.65;;
54235;SDS011;40151;43.606;1.472;2023-03-04T00:49:42;13.40;;;11.07;;
54235;SDS011;40151;43.606;1.472;2023-03-04T00:52:08;14.63;;;10.80;;
54235;SDS011;40151;43.606;1.472;2023-03-04T00:54:34;13.68;;;11.02;;
54235;SDS011;40151;43.606;1.472;2023-03-04T00:56:59;12.93;;;10.43;;
54235;SDS011;40151;43.606;1.472;2023-03-04T00:59:25;13.85;;;10.60;;
54235;SDS011;40151;43.606;1.472;2023-03-04T01:01:50;14.07;;;10.40;;
54235;SDS011;40151;43.606;1.472;2023-03-04T01:04:15;13.98;;;10.30;;
54235;SDS011;40151;43.606;1.472;2023-03-04T01:06:41;13.27;;;10.65;;
54235;SDS011;40151;43.606;1.472;2023-03-04T01:09:06;12.05;;;9.73;;
54235;SDS011;40151;43.606;1.472;2023-03-04T01:11:32;13.13;;;10.75;;
54235;SDS011;40151;43.606;1.472;2023-03-04T01:13:58;13.00;;;10.68;;
54235;SDS011;40151;43.606;1.472;2023-03-04T01:16:23;13.82;;;10.40;;
54235;SDS011;40151;43.606;1.472;2023-03-04T01:18:49;12.23;;;9.70;;
54235;SDS011;40151;43.606;1.472;2023-03-04T01:21:14;11.73;;;9.80;;
54235;SDS011;40151;43.606;1.472;2023-03-04T01:23:39;12.35;;;9.48;;
54235;SDS011;40151;43.606;1.472;2023-03-04T01:26:05;13.02;;;10.40;;
54235;SDS011;40151;43.606;1.472;2023-03-04T01:28:30;12.40;;;10.45;;
54235;SDS011;40151;43.606;1.472;2023-03-04T01:31:00;12.68;;;10.15;;
54235;SDS011;40151;43.606;1.472;2023-03-04T01:33:29;11.90;;;9.82;;
54235;SDS011;40151;43.606;1.472;2023-03-04T01:35:55;12.43;;;9.90;;
54235;SDS011;40151;43.606;1.472;2023-03-04T01:38:22;12.63;;;9.90;;
54235;SDS011;40151;43.606;1.472;2023-03-04T01:40:48;14.90;;;10.65;;
54235;SDS011;40151;43.606;1.472;2023-03-04T01:43:18;13.80;;;11.15;;
54235;SDS011;40151;43.606;1.472;2023-03-04T01:45:50;12.63;;;9.10;;
54235;SDS011;40151;43.606;1.472;2023-03-04T01:48:26;12.65;;;9.60;;
54235;SDS011;40151;43.606;1.472;2023-03-04T01:50:56;13.52;;;10.10;;
54235;SDS011;40151;43.606;1.472;2023-03-04T01:53:24;11.93;;;9.55;;
54235;SDS011;40151;43.606;1.472;2023-03-04T01:55:51;12.68;;;10.07;;
54235;SDS011;40151;43.606;1.472;2023-03-04T01:58:20;12.65;;;9.98;;
54235;SDS011;40151;43.606;1.472;2023-03-04T02:00:45;12.88;;;9.90;;
54235;SDS011;40151;43.606;1.472;2023-03-04T02:03:12;12.13;;;9.82;;
54235;SDS011;40151;43.606;1.472;2023-03-04T02:05:43;10.93;;;9.10;;
54235;SDS011;40151;43.606;1.472;2023-03-04T02:08:11;12.00;;;9.55;;
54235;SDS011;40151;43.606;1.472;2023-03-04T02:10:39;12.75;;;9.60;;
54235;SDS011;40151;43.606;1.472;2023-03-04T02:13:07;12.55;;;9.32;;
54235;SDS011;40151;43.606;1.472;2023-03-04T02:15:32;11.23;;;9.90;;
54235;SDS011;40151;43.606;1.472;2023-03-04T02:17:58;10.77;;;8.73;;
54235;SDS011;40151;43.606;1.472;2023-03-04T02:26:07;11.02;;;8.77;;
54235;SDS011;40151;43.606;1.472;2023-03-04T02:28:33;12.57;;;8.95;;
54235;SDS011;40151;43.606;1.472;2023-03-04T02:30:58;11.95;;;9.35;;
54235;SDS011;40151;43.606;1.472;2023-03-04T02:33:24;12.30;;;9.52;;
54235;SDS011;40151;43.606;1.472;2023-03-04T02:35:49;12.30;;;9.60;;
54235;SDS011;40151;43.606;1.472;2023-03-04T02:38:15;11.50;;;8.52;;
54235;SDS011;40151;43.606;1.472;2023-03-04T02:40:41;12.63;;;9.35;;
54235;SDS011;40151;43.606;1.472;2023-03-04T02:43:11;11.20;;;8.75;;
54235;SDS011;40151;43.606;1.472;2023-03-04T02:45:38;11.05;;;8.70;;
54235;SDS011;40151;43.606;1.472;2023-03-04T02:48:09;11.32;;;9.07;;
54235;SDS011;40151;43.606;1.472;2023-03-04T02:50:46;10.40;;;8.93;;
54235;SDS011;40151;43.606;1.472;2023-03-04T02:53:14;11.35;;;9.07;;
54235;SDS011;40151;43.606;1.472;2023-03-04T02:55:39;12.40;;;9.15;;
54235;SDS011;40151;43.606;1.472;2023-03-04T02:58:06;11.50;;;9.20;;
54235;SDS011;40151;43.606;1.472;2023-03-04T03:00:32;10.68;;;8.75;;
54235;SDS011;40151;43.606;1.472;2023-03-04T03:02:57;11.40;;;8.88;;
54235;SDS011;40151;43.606;1.472;2023-03-04T03:05:26;10.50;;;9.02;;
54235;SDS011;40151;43.606;1.472;2023-03-04T03:07:53;11.35;;;9.32;;
54235;SDS011;40151;43.606;1.472;2023-03-04T03:10:19;13.73;;;9.98;;
54235;SDS011;40151;43.606;1.472;2023-03-04T03:12:44;11.27;;;8.40;;
54235;SDS011;40151;43.606;1.472;2023-03-04T03:15:10;11.68;;;9.07;;
54235;SDS011;40151;43.606;1.472;2023-03-04T03:17:36;12.82;;;9.45;;
54235;SDS011;40151;43.606;1.472;2023-03-04T03:20:01;11.35;;;9.52;;
54235;SDS011;40151;43.606;1.472;2023-03-04T03:22:27;11.13;;;9.27;;
54235;SDS011;40151;43.606;1.472;2023-03-04T03:24:53;11.15;;;8.98;;
54235;SDS011;40151;43.606;1.472;2023-03-04T03:27:18;11.80;;;9.30;;
54235;SDS011;40151;43.606;1.472;2023-03-04T03:29:43;11.32;;;9.15;;
54235;SDS011;40151;43.606;1.472;2023-03-04T03:32:09;11.23;;;8.27;;
54235;SDS011;40151;43.606;1.472;2023-03-04T03:34:34;11.85;;;9.35;;
54235;SDS011;40151;43.606;1.472;2023-03-04T03:37:00;10.75;;;8.70;;
54235;SDS011;40151;43.606;1.472;2023-03-04T03:39:25;11.02;;;8.52;;
54235;SDS011;40151;43.606;1.472;2023-03-04T03:41:51;11.95;;;8.77;;
54235;SDS011;40151;43.606;1.472;2023-03-04T03:44:16;11.98;;;8.68;;
54235;SDS011;40151;43.606;1.472;2023-03-04T03:46:41;11.10;;;8.43;;
54235;SDS011;40151;43.606;1.472;2023-03-04T03:49:07;11.70;;;8.55;;
54235;SDS011;40151;43.606;1.472;2023-03-04T03:51:32;11.02;;;7.82;;
54235;SDS011;40151;43.606;1.472;2023-03-04T03:53:57;11.18;;;9.00;;
54235;SDS011;40151;43.606;1.472;2023-03-04T03:56:23;10.95;;;8.70;;
54235;SDS011;40151;43.606;1.472;2023-03-04T03:58:48;11.23;;;8.98;;
54235;SDS011;40151;43.606;1.472;2023-03-04T04:01:14;11.63;;;8.80;;
54235;SDS011;40151;43.606;1.472;2023-03-04T04:03:39;10.82;;;8.52;;
54235;SDS011;40151;43.606;1.472;2023-03-04T04:06:04;11.32;;;9.25;;
54235;SDS011;40151;43.606;1.472;2023-03-04T04:08:30;10.80;;;8.65;;
54235;SDS011;40151;43.606;1.472;2023-03-04T04:10:57;11.02;;;8.50;;
54235;SDS011;40151;43.606;1.472;2023-03-04T04:13:22;10.68;;;8.25;;
54235;SDS011;40151;43.606;1.472;2023-03-04T04:15:50;11.52;;;8.45;;
54235;SDS011;40151;43.606;1.472;2023-03-04T04:18:15;11.60;;;8.55;;
54235;SDS011;40151;43.606;1.472;2023-03-04T04:20:41;10.73;;;8.43;;
54235;SDS011;40151;43.606;1.472;2023-03-04T04:23:06;11.02;;;9.10;;
54235;SDS011;40151;43.606;1.472;2023-03-04T04:25:32;10.90;;;8.88;;
54235;SDS011;40151;43.606;1.472;2023-03-04T04:27:57;10.18;;;8.15;;
54235;SDS011;40151;43.606;1.472;2023-03-04T04:30:23;12.32;;;9.13;;
54235;SDS011;40151;43.606;1.472;2023-03-04T04:32:49;10.65;;;8.55;;
54235;SDS011;40151;43.606;1.472;2023-03-04T04:35:14;10.38;;;8.30;;
54235;SDS011;40151;43.606;1.472;2023-03-04T04:37:40;10.48;;;8.43;;
54235;SDS011;40151;43.606;1.472;2023-03-04T04:40:05;12.63;;;9.27;;
54235;SDS011;40151;43.606;1.472;2023-03-04T04:42:32;10.23;;;7.90;;
54235;SDS011;40151;43.606;1.472;2023-03-04T04:44:57;10.70;;;8.32;;
54235;SDS011;40151;43.606;1.472;2023-03-04T04:47:22;9.57;;;7.55;;
54235;SDS011;40151;43.606;1.472;2023-03-04T04:49:48;10.88;;;8.23;;
54235;SDS011;40151;43.606;1.472;2023-03-04T04:52:13;10.18;;;8.25;;
54235;SDS011;40151;43.606;1.472;2023-03-04T04:54:39;10.20;;;8.32;;
54235;SDS011;40151;43.606;1.472;2023-03-04T04:57:04;10.48;;;7.97;;
54235;SDS011;40151;43.606;1.472;2023-03-04T04:59:29;10.57;;;8.70;;
54235;SDS011;40151;43.606;1.472;2023-03-04T05:01:55;9.82;;;7.70;;
54235;SDS011;40151;43.606;1.472;2023-03-04T05:04:21;10.43;;;7.85;;
54235;SDS011;40151;43.606;1.472;2023-03-04T05:06:46;11.50;;;8.30;;
54235;SDS011;40151;43.606;1.472;2023-03-04T05:09:12;11.10;;;8.80;;
54235;SDS011;40151;43.606;1.472;2023-03-04T05:11:37;10.20;;;7.97;;
54235;SDS011;40151;43.606;1.472;2023-03-04T05:14:03;9.93;;;7.88;;
54235;SDS011;40151;43.606;1.472;2023-03-04T05:16:28;10.55;;;8.38;;
54235;SDS011;40151;43.606;1.472;2023-03-04T05:18:54;10.45;;;8.10;;
54235;SDS011;40151;43.606;1.472;2023-03-04T05:21:19;9.63;;;7.80;;
54235;SDS011;40151;43.606;1.472;2023-03-04T05:23:45;10.23;;;7.63;;
54235;SDS011;40151;43.606;1.472;2023-03-04T05:26:12;10.30;;;7.70;;
54235;SDS011;40151;43.606;1.472;2023-03-04T05:28:39;9.23;;;7.60;;
54235;SDS011;40151;43.606;1.472;2023-03-04T05:31:05;9.65;;;7.75;;
54235;SDS011;40151;43.606;1.472;2023-03-04T05:33:30;8.02;;;6.65;;
54235;SDS011;40151;43.606;1.472;2023-03-04T05:35:56;10.13;;;7.93;;
54235;SDS011;40151;43.606;1.472;2023-03-04T05:38:22;9.57;;;8.13;;
54235;SDS011;40151;43.606;1.472;2023-03-04T05:40:48;9.20;;;7.53;;
54235;SDS011;40151;43.606;1.472;2023-03-04T05:43:14;9.27;;;7.57;;
54235;SDS011;40151;43.606;1.472;2023-03-04T05:45:40;9.02;;;7.38;;
54235;SDS011;40151;43.606;1.472;2023-03-04T05:48:06;9.73;;;7.60;;
54235;SDS011;40151;43.606;1.472;2023-03-04T05:50:32;9.70;;;7.68;;
54235;SDS011;40151;43.606;1.472;2023-03-04T05:52:58;10.02;;;7.75;;
54235;SDS011;40151;43.606;1.472;2023-03-04T05:55:24;10.00;;;7.20;;
54235;SDS011;40151;43.606;1.472;2023-03-04T05:57:51;9.60;;;7.50;;
54235;SDS011;40151;43.606;1.472;2023-03-04T06:00:17;9.75;;;7.78;;
54235;SDS011;40151;43.606;1.472;2023-03-04T06:02:43;9.27;;;7.95;;
54235;SDS011;40151;43.606;1.472;2023-03-04T06:05:09;9.48;;;7.43;;
54235;SDS011;40151;43.606;1.472;2023-03-04T06:07:35;9.43;;;7.10;;
54235;SDS011;40151;43.606;1.472;2023-03-04T06:10:00;10.00;;;7.68;;
54235;SDS011;40151;43.606;1.472;2023-03-04T06:12:26;9.98;;;7.40;;
54235;SDS011;40151;43.606;1.472;2023-03-04T06:14:52;10.32;;;7.25;;
54235;SDS011;40151;43.606;1.472;2023-03-04T06:17:18;10.18;;;7.43;;
54235;SDS011;40151;43.606;1.472;2023-03-04T06:19:43;8.98;;;7.25;;
54235;SDS011;40151;43.606;1.472;2023-03-04T06:22:09;10.20;;;8.13;;
54235;SDS011;40151;43.606;1.472;2023-03-04T06:24:35;10.20;;;7.82;;
54235;SDS011;40151;43.606;1.472;2023-03-04T06:27:00;10.00;;;7.43;;
54235;SDS011;40151;43.606;1.472;2023-03-04T06:29:26;10.48;;;7.80;;
54235;SDS011;40151;43.606;1.472;2023-03-04T06:31:52;11.77;;;8.13;;
54235;SDS011;40151;43.606;1.472;2023-03-04T06:34:17;9.65;;;7.95;;
54235;SDS011;40151;43.606;1.472;2023-03-04T06:36:43;9.52;;;7.32;;
54235;SDS011;40151;43.606;1.472;2023-03-04T06:39:09;10.20;;;7.72;;
54235;SDS011;40151;43.606;1.472;2023-03-04T06:41:34;9.38;;;7.50;;
54235;SDS011;40151;43.606;1.472;2023-03-04T06:44:00;10.32;;;7.10;;
54235;SDS011;40151;43.606;1.472;2023-03-04T06:46:25;10.35;;;7.45;;
54235;SDS011;40151;43.606;1.472;2023-03-04T06:48:51;9.82;;;7.82;;
54235;SDS011;40151;43.606;1.472;2023-03-04T06:51:17;9.90;;;6.95;;
54235;SDS011;40151;43.606;1.472;2023-03-04T06:53:43;9.13;;;7.30;;
54235;SDS011;40151;43.606;1.472;2023-03-04T06:56:09;9.02;;;7.05;;
54235;SDS011;40151;43.606;1.472;2023-03-04T06:58:36;10.32;;;7.85;;
54235;SDS011;40151;43.606;1.472;2023-03-04T07:01:15;9.52;;;7.13;;
54235;SDS011;40151;43.606;1.472;2023-03-04T07:03:43;9.75;;;7.47;;
54235;SDS011;40151;43.606;1.472;2023-03-04T07:06:10;10.82;;;7.78;;
54235;SDS011;40151;43.606;1.472;2023-03-04T07:08:36;10.43;;;7.63;;
54235;SDS011;40151;43.606;1.472;2023-03-04T07:11:02;10.15;;;7.60;;
54235;SDS011;40151;43.606;1.472;2023-03-04T07:13:27;11.30;;;7.60;;
54235;SDS011;40151;43.606;1.472;2023-03-04T07:15:53;10.82;;;7.70;;
54235;SDS011;40151;43.606;1.472;2023-03-04T07:18:18;10.63;;;8.57;;
54235;SDS011;40151;43.606;1.472;2023-03-04T07:20:44;9.95;;;7.82;;
54235;SDS011;40151;43.606;1.472;2023-03-04T07:23:09;9.90;;;7.82;;
54235;SDS011;40151;43.606;1.472;2023-03-04T07:25:34;10.32;;;8.20;;
54235;SDS011;40151;43.606;1.472;2023-03-04T07:28:00;9.80;;;7.95;;
54235;SDS011;40151;43.606;1.472;2023-03-04T07:30:25;11.55;;;9.07;;
54235;SDS011;40151;43.606;1.472;2023-03-04T07:32:51;10.68;;;8.40;;
54235;SDS011;40151;43.606;1.472;2023-03-04T07:35:16;10.55;;;8.63;;
54235;SDS011;40151;43.606;1.472;2023-03-04T07:37:42;10.10;;;8.02;;
54235;SDS011;40151;43.606;1.472;2023-03-04T07:40:07;10.27;;;7.97;;
54235;SDS011;40151;43.606;1.472;2023-03-04T07:42:33;11.00;;;8.40;;
54235;SDS011;40151;43.606;1.472;2023-03-04T07:44:59;9.88;;;7.53;;
54235;SDS011;40151;43.606;1.472;2023-03-04T07:47:26;10.98;;;8.05;;
54235;SDS011;40151;43.606;1.472;2023-03-04T07:49:51;10.32;;;8.23;;
54235;SDS011;40151;43.606;1.472;2023-03-04T07:52:17;11.95;;;8.38;;
54235;SDS011;40151;43.606;1.472;2023-03-04T07:54:43;10.85;;;8.57;;
54235;SDS011;40151;43.606;1.472;2023-03-04T07:57:08;10.55;;;8.23;;
54235;SDS011;40151;43.606;1.472;2023-03-04T07:59:34;9.57;;;7.78;;
54235;SDS011;40151;43.606;1.472;2023-03-04T08:01:59;10.32;;;8.38;;
54235;SDS011;40151;43.606;1.472;2023-03-04T08:04:25;10.38;;;8.77;;
54235;SDS011;40151;43.606;1.472;2023-03-04T08:06:50;10.10;;;7.70;;
54235;SDS011;40151;43.606;1.472;2023-03-04T08:09:15;11.07;;;8.15;;
54235;SDS011;40151;43.606;1.472;2023-03-04T08:11:41;9.60;;;7.97;;
54235;SDS011;40151;43.606;1.472;2023-03-04T08:14:11;9.77;;;7.50;;
54235;SDS011;40151;43.606;1.472;2023-03-04T08:16:37;9.75;;;8.23;;
54235;SDS011;40151;43.606;1.472;2023-03-04T08:19:03;11.35;;;8.88;;
54235;SDS011;40151;43.606;1.472;2023-03-04T08:21:29;11.30;;;9.00;;
54235;SDS011;40151;43.606;1.472;2023-03-04T08:23:56;10.75;;;8.88;;
54235;SDS011;40151;43.606;1.472;2023-03-04T08:26:33;10.95;;;8.20;;
54235;SDS011;40151;43.606;1.472;2023-03-04T08:29:06;10.75;;;8.77;;
54235;SDS011;40151;43.606;1.472;2023-03-04T08:31:32;11.13;;;8.93;;
54235;SDS011;40151;43.606;1.472;2023-03-04T08:33:57;11.55;;;8.85;;
54235;SDS011;40151;43.606;1.472;2023-03-04T08:36:22;10.73;;;8.27;;
54235;SDS011;40151;43.606;1.472;2023-03-04T08:38:48;11.35;;;8.75;;
54235;SDS011;40151;43.606;1.472;2023-03-04T08:41:13;10.93;;;8.65;;
54235;SDS011;40151;43.606;1.472;2023-03-04T08:43:39;10.48;;;8.75;;
54235;SDS011;40151;43.606;1.472;2023-03-04T08:46:05;10.75;;;8.85;;
54235;SDS011;40151;43.606;1.472;2023-03-04T08:48:31;11.82;;;9.02;;
54235;SDS011;40151;43.606;1.472;2023-03-04T08:50:57;12.13;;;9.20;;
54235;SDS011;40151;43.606;1.472;2023-03-04T08:53:22;11.55;;;9.07;;
54235;SDS011;40151;43.606;1.472;2023-03-04T08:55:49;11.32;;;9.18;;
54235;SDS011;40151;43.606;1.472;2023-03-04T08:58:15;12.43;;;9.50;;
54235;SDS011;40151;43.606;1.472;2023-03-04T09:00:42;12.77;;;8.40;;
54235;SDS011;40151;43.606;1.472;2023-03-04T09:03:12;10.68;;;8.50;;
54235;SDS011;40151;43.606;1.472;2023-03-04T09:05:38;11.68;;;9.02;;
54235;SDS011;40151;43.606;1.472;2023-03-04T09:08:04;10.65;;;8.50;;
54235;SDS011;40151;43.606;1.472;2023-03-04T09:10:30;12.35;;;8.85;;
54235;SDS011;40151;43.606;1.472;2023-03-04T09:12:56;10.90;;;8.98;;
54235;SDS011;40151;43.606;1.472;2023-03-04T09:15:22;10.93;;;8.57;;
54235;SDS011;40151;43.606;1.472;2023-03-04T09:17:47;10.93;;;8.30;;
54235;SDS011;40151;43.606;1.472;2023-03-04T09:20:13;10.43;;;8.32;;
54235;SDS011;40151;43.606;1.472;2023-03-04T09:22:39;9.50;;;7.75;;
54235;SDS011;40151;43.606;1.472;2023-03-04T09:25:05;10.70;;;7.82;;
54235;SDS011;40151;43.606;1.472;2023-03-04T09:27:31;10.38;;;7.95;;
54235;SDS011;40151;43.606;1.472;2023-03-04T09:29:57;10.05;;;7.28;;
54235;SDS011;40151;43.606;1.472;2023-03-04T09:32:23;9.98;;;8.52;;
54235;SDS011;40151;43.606;1.472;2023-03-04T09:34:48;9.55;;;7.68;;
54235;SDS011;40151;43.606;1.472;2023-03-04T09:37:13;10.40;;;7.72;;
54235;SDS011;40151;43.606;1.472;2023-03-04T09:39:39;10.65;;;8.65;;
54235;SDS011;40151;43.606;1.472;2023-03-04T09:42:05;11.52;;;8.48;;
54235;SDS011;40151;43.606;1.472;2023-03-04T09:44:35;10.80;;;7.97;;
54235;SDS011;40151;43.606;1.472;2023-03-04T09:47:08;10.68;;;8.77;;
54235;SDS011;40151;43.606;1.472;2023-03-04T09:49:37;10.68;;;8.15;;
54235;SDS011;40151;43.606;1.472;2023-03-04T09:52:19;10.48;;;9.07;;
54235;SDS011;40151;43.606;1.472;2023-03-04T09:57:39;9.80;;;7.80;;
54235;SDS011;40151;43.606;1.472;2023-03-04T10:00:19;9.80;;;7.93;;
54235;SDS011;40151;43.606;1.472;2023-03-04T10:10:51;10.95;;;8.10;;
54235;SDS011;40151;43.606;1.472;2023-03-04T10:14:07;10.57;;;7.53;;
54235;SDS011;40151;43.606;1.472;2023-03-04T10:16:22;10.50;;;8.00;;
54235;SDS011;40151;43.606;1.472;2023-03-04T10:19:10;9.88;;;8.00;;
54235;SDS011;40151;43.606;1.472;2023-03-04T10:21:45;11.60;;;7.75;;
54235;SDS011;40151;43.606;1.472;2023-03-04T10:24:17;8.95;;;7.00;;
54235;SDS011;40151;43.606;1.472;2023-03-04T10:26:48;10.38;;;8.10;;
54235;SDS011;40151;43.606;1.472;2023-03-04T10:29:18;9.32;;;7.30;;
54235;SDS011;40151;43.606;1.472;2023-03-04T10:31:46;9.70;;;7.80;;
54235;SDS011;40151;43.606;1.472;2023-03-04T10:34:14;9.93;;;8.13;;
54235;SDS011;40151;43.606;1.472;2023-03-04T10:39:29;9.13;;;7.80;;
54235;SDS011;40151;43.606;1.472;2023-03-04T10:42:01;9.98;;;7.95;;
54235;SDS011;40151;43.606;1.472;2023-03-04T10:44:31;9.25;;;7.60;;
54235;SDS011;40151;43.606;1.472;2023-03-04T10:46:58;10.32;;;8.25;;
54235;SDS011;40151;43.606;1.472;2023-03-04T10:49:25;10.55;;;8.30;;
54235;SDS011;40151;43.606;1.472;2023-03-04T10:52:52;8.98;;;7.40;;
54235;SDS011;40151;43.606;1.472;2023-03-04T10:54:59;9.48;;;7.55;;
54235;SDS011;40151;43.606;1.472;2023-03-04T10:57:36;10.18;;;8.15;;
54235;SDS011;40151;43.606;1.472;2023-03-04T11:02:41;11.98;;;7.97;;
54235;SDS011;40151;43.606;1.472;2023-03-04T11:07:39;10.13;;;8.27;;
54235;SDS011;40151;43.606;1.472;2023-03-04T11:10:16;11.35;;;8.70;;
54235;SDS011;40151;43.606;1.472;2023-03-04T11:15:22;11.65;;;8.70;;
54235;SDS011;40151;43.606;1.472;2023-03-04T11:18:05;12.40;;;10.02;;
54235;SDS011;40151;43.606;1.472;2023-03-04T11:20:44;10.98;;;8.55;;
54235;SDS011;40151;43.606;1.472;2023-03-04T11:26:03;11.23;;;8.80;;
54235;SDS011;40151;43.606;1.472;2023-03-04T11:31:08;14.27;;;9.88;;
54235;SDS011;40151;43.606;1.472;2023-03-04T11:36:10;12.55;;;9.88;;
54235;SDS011;40151;43.606;1.472;2023-03-04T11:38:52;15.63;;;10.45;;
54235;SDS011;40151;43.606;1.472;2023-03-04T11:41:27;17.95;;;11.10;;
54235;SDS011;40151;43.606;1.472;2023-03-04T11:43:57;12.77;;;9.85;;
54235;SDS011;40151;43.606;1.472;2023-03-04T11:51:33;14.60;;;11.27;;
54235;SDS011;40151;43.606;1.472;2023-03-04T11:56:58;15.57;;;11.10;;
54235;SDS011;40151;43.606;1.472;2023-03-04T12:02:21;15.95;;;11.10;;
54235;SDS011;40151;43.606;1.472;2023-03-04T12:10:41;13.85;;;11.38;;
54235;SDS011;40151;43.606;1.472;2023-03-04T12:30:00;13.50;;;10.77;;
54235;SDS011;40151;43.606;1.472;2023-03-04T12:37:39;13.23;;;10.15;;
54235;SDS011;40151;43.606;1.472;2023-03-04T12:40:18;12.80;;;9.90;;
54235;SDS011;40151;43.606;1.472;2023-03-04T12:48:48;13.40;;;10.23;;
54235;SDS011;40151;43.606;1.472;2023-03-04T12:56:53;13.38;;;9.48;;
54235;SDS011;40151;43.606;1.472;2023-03-04T12:59:25;14.13;;;10.00;;
54235;SDS011;40151;43.606;1.472;2023-03-04T13:01:55;13.07;;;9.73;;
54235;SDS011;40151;43.606;1.472;2023-03-04T13:07:39;15.30;;;10.23;;
54235;SDS011;40151;43.606;1.472;2023-03-04T13:10:17;13.90;;;10.07;;
54235;SDS011;40151;43.606;1.472;2023-03-04T13:12:59;16.15;;;10.93;;
54235;SDS011;40151;43.606;1.472;2023-03-04T13:15:33;14.73;;;10.38;;
54235;SDS011;40151;43.606;1.472;2023-03-04T13:18:28;12.98;;;9.90;;
54235;SDS011;40151;43.606;1.472;2023-03-04T13:21:15;12.88;;;9.98;;
54235;SDS011;40151;43.606;1.472;2023-03-04T13:23:41;12.45;;;9.02;;
54235;SDS011;40151;43.606;1.472;2023-03-04T13:29:09;11.75;;;9.35;;
54235;SDS011;40151;43.606;1.472;2023-03-04T13:42:48;11.85;;;8.50;;
54235;SDS011;40151;43.606;1.472;2023-03-04T13:47:59;12.73;;;9.27;;
54235;SDS011;40151;43.606;1.472;2023-03-04T13:53:21;12.32;;;8.68;;
54235;SDS011;40151;43.606;1.472;2023-03-04T13:58:49;10.18;;;8.40;;
54235;SDS011;40151;43.606;1.472;2023-03-04T14:01:21;13.52;;;10.18;;
54235;SDS011;40151;43.606;1.472;2023-03-04T14:03:52;11.07;;;8.88;;
54235;SDS011;40151;43.606;1.472;2023-03-04T14:08:48;11.00;;;8.55;;
54235;SDS011;40151;43.606;1.472;2023-03-04T14:11:25;10.93;;;7.57;;
54235;SDS011;40151;43.606;1.472;2023-03-04T14:13:52;10.23;;;8.25;;
54235;SDS011;40151;43.606;1.472;2023-03-04T14:16:20;9.40;;;7.80;;
54235;SDS011;40151;43.606;1.472;2023-03-04T14:19:48;9.65;;;7.85;;
54235;SDS011;40151;43.606;1.472;2023-03-04T14:21:51;10.32;;;8.50;;
54235;SDS011;40151;43.606;1.472;2023-03-04T14:24:18;10.88;;;8.38;;
54235;SDS011;40151;43.606;1.472;2023-03-04T14:26:45;9.65;;;7.78;;
54235;SDS011;40151;43.606;1.472;2023-03-04T14:32:06;10.32;;;8.30;;
54235;SDS011;40151;43.606;1.472;2023-03-04T14:34:33;9.52;;;7.70;;
54235;SDS011;40151;43.606;1.472;2023-03-04T14:37:02;10.93;;;8.50;;
54235;SDS011;40151;43.606;1.472;2023-03-04T14:39:41;10.88;;;8.55;;
54235;SDS011;40151;43.606;1.472;2023-03-04T14:42:08;11.38;;;8.82;;
54235;SDS011;40151;43.606;1.472;2023-03-04T14:44:36;12.80;;;8.73;;
54235;SDS011;40151;43.606;1.472;2023-03-04T14:47:15;11.05;;;8.48;;
54235;SDS011;40151;43.606;1.472;2023-03-04T14:49:54;11.00;;;8.63;;
54235;SDS011;40151;43.606;1.472;2023-03-04T14:58:04;12.15;;;9.05;;
54235;SDS011;40151;43.606;1.472;2023-03-04T15:00:33;11.18;;;8.73;;
54235;SDS011;40151;43.606;1.472;2023-03-04T15:05:50;9.10;;;8.10;;
54235;SDS011;40151;43.606;1.472;2023-03-04T15:10:56;11.32;;;8.45;;
54235;SDS011;40151;43.606;1.472;2023-03-04T15:13:39;10.45;;;7.70;;
54235;SDS011;40151;43.606;1.472;2023-03-04T15:16:07;10.63;;;8.00;;
54235;SDS011;40151;43.606;1.472;2023-03-04T15:18:34;10.48;;;8.75;;
54235;SDS011;40151;43.606;1.472;2023-03-04T15:21:00;9.73;;;8.38;;
54235;SDS011;40151;43.606;1.472;2023-03-04T15:23:29;9.68;;;8.00;;
54235;SDS011;40151;43.606;1.472;2023-03-04T15:25:59;10.93;;;8.02;;
54235;SDS011;40151;43.606;1.472;2023-03-04T15:28:34;10.20;;;8.40;;
54235;SDS011;40151;43.606;1.472;2023-03-04T15:31:01;9.57;;;7.97;;
54235;SDS011;40151;43.606;1.472;2023-03-04T15:33:27;11.88;;;8.00;;
54235;SDS011;40151;43.606;1.472;2023-03-04T15:35:55;10.05;;;8.18;;
54235;SDS011;40151;43.606;1.472;2023-03-04T15:38:24;9.52;;;7.60;;
54235;SDS011;40151;43.606;1.472;2023-03-04T15:40:50;9.75;;;7.97;;
54235;SDS011;40151;43.606;1.472;2023-03-04T15:43:18;11.68;;;7.90;;
54235;SDS011;40151;43.606;1.472;2023-03-04T15:45:44;8.90;;;7.15;;
54235;SDS011;40151;43.606;1.472;2023-03-04T15:48:12;9.95;;;7.68;;
54235;SDS011;40151;43.606;1.472;2023-03-04T15:50:55;10.25;;;8.15;;
54235;SDS011;40151;43.606;1.472;2023-03-04T15:55:57;9.57;;;7.70;;
54235;SDS011;40151;43.606;1.472;2023-03-04T15:58:22;8.48;;;6.90;;
54235;SDS011;40151;43.606;1.472;2023-03-04T16:00:48;10.30;;;7.68;;
54235;SDS011;40151;43.606;1.472;2023-03-04T16:03:15;10.73;;;7.95;;
54235;SDS011;40151;43.606;1.472;2023-03-04T16:05:43;9.85;;;7.80;;
54235;SDS011;40151;43.606;1.472;2023-03-04T16:08:13;10.30;;;7.70;;
54235;SDS011;40151;43.606;1.472;2023-03-04T16:10:41;8.85;;;7.63;;
54235;SDS011;40151;43.606;1.472;2023-03-04T16:13:13;10.80;;;7.93;;
54235;SDS011;40151;43.606;1.472;2023-03-04T16:15:40;10.80;;;8.38;;
54235;SDS011;40151;43.606;1.472;2023-03-04T16:18:07;11.48;;;8.38;;
54235;SDS011;40151;43.606;1.472;2023-03-04T16:20:34;10.38;;;8.48;;
54235;SDS011;40151;43.606;1.472;2023-03-04T16:23:00;10.30;;;8.75;;
54235;SDS011;40151;43.606;1.472;2023-03-04T16:25:26;9.88;;;8.05;;
54235;SDS011;40151;43.606;1.472;2023-03-04T16:27:54;11.25;;;8.65;;
54235;SDS011;40151;43.606;1.472;2023-03-04T16:30:26;11.18;;;8.75;;
54235;SDS011;40151;43.606;1.472;2023-03-04T16:32:52;10.27;;;8.35;;
54235;SDS011;40151;43.606;1.472;2023-03-04T16:35:18;11.55;;;9.20;;
54235;SDS011;40151;43.606;1.472;2023-03-04T16:37:45;10.80;;;8.98;;
54235;SDS011;40151;43.606;1.472;2023-03-04T16:40:14;10.57;;;8.45;;
54235;SDS011;40151;43.606;1.472;2023-03-04T16:42:41;9.60;;;8.20;;
54235;SDS011;40151;43.606;1.472;2023-03-04T16:45:13;10.52;;;8.23;;
54235;SDS011;40151;43.606;1.472;2023-03-04T16:47:41;10.75;;;8.25;;
54235;SDS011;40151;43.606;1.472;2023-03-04T16:50:08;10.52;;;8.20;;